Time,TemperatureF,DewpointF,PressureIn,WindDirection,WindDirectionDegrees,WindSpeedMPH,WindSpeedGustMPH,Humidity,HourlyPrecipIn,Conditions,Clouds,dailyrainin,SoftwareType,DateUTC
2013-09-22 07:20:00,72.3,71.7,29.91,NNE,22,0.0,-999.0,98,-99.99,,,0.01,Acu-Link.com,2013-09-22 17:20:00,
2013-09-22 07:35:00,72.9,72.3,29.93,NNE,22,0.0,-999.0,98,-99.99,,,0.02,Acu-Link.com,2013-09-22 17:35:00,
2013-09-22 07:50:00,73.8,73.2,29.91,NNE,22,1.1,-999.0,98,-99.99,,,0.02,Acu-Link.com,2013-09-22 17:50:00,
2013-09-22 08:06:00,72.9,72.3,29.92,NNE,22,0.0,-999.0,98,-99.99,,,0.02,Acu-Link.com,2013-09-22 18:06:00,
2013-09-22 08:21:00,73.6,73.0,29.92,NNE,22,0.0,-999.0,98,-99.99,,,0.02,Acu-Link.com,2013-09-22 18:21:00,
2013-09-22 08:36:00,73.9,73.3,29.92,NNE,22,0.0,-999.0,98,-99.99,,,0.02,Acu-Link.com,2013-09-22 18:36:00,
2013-09-22 08:51:00,74.3,73.7,29.91,NW,315,1.7,-999.0,98,-99.99,,,0.02,Acu-Link.com,2013-09-22 18:51:00,
2013-09-22 09:10:00,74.7,74.1,29.91,NNE,22,0.0,-999.0,98,-99.99,,,0.02,Acu-Link.com,2013-09-22 19:10:00,
2013-09-22 14:19:00,91.0,72.6,29.83,West,270,2.2,-999.0,55,-99.99,,,0.02,Acu-Link.com,2013-09-23 00:19:00,
2013-09-22 14:35:00,90.5,72.1,29.83,North,0,2.7,-999.0,55,-99.99,,,0.02,Acu-Link.com,2013-09-23 00:35:00,
2013-09-22 14:50:00,88.2,72.0,29.82,NE,45,1.1,-999.0,59,-99.99,,,0.02,Acu-Link.com,2013-09-23 00:50:00,
2013-09-22 15:05:00,87.4,71.3,29.81,NNE,22,2.7,-999.0,59,-99.99,,,0.02,Acu-Link.com,2013-09-23 01:05:00,
2013-09-22 15:20:00,89.1,71.3,29.81,WSW,247,4.2,-999.0,56,-99.99,,,0.02,Acu-Link.com,2013-09-23 01:20:00,
2013-09-22 21:29:00,73.2,69.8,29.90,NE,45,0.0,-999.0,89,-99.99,,,0.02,Acu-Link.com,2013-09-23 07:29:00,
2013-09-22 21:45:00,73.9,69.8,29.90,West,270,0.0,-999.0,87,-99.99,,,0.02,Acu-Link.com,2013-09-23 07:45:00,
2013-09-22 22:00:00,74.3,69.5,29.91,NNE,22,0.0,-999.0,85,-99.99,,,0.02,Acu-Link.com,2013-09-23 08:00:00,
2013-09-22 22:15:00,74.1,69.3,29.90,North,0,1.1,-999.0,85,-99.99,,,0.02,Acu-Link.com,2013-09-23 08:15:00,
2013-09-22 22:31:00,74.3,69.1,29.91,ESE,112,1.7,-999.0,84,-99.99,,,0.02,Acu-Link.com,2013-09-23 08:31:00,
2013-09-22 22:46:00,74.3,69.1,29.89,WNW,292,1.7,-999.0,84,-99.99,,,0.02,Acu-Link.com,2013-09-23 08:46:00,
2013-09-22 23:01:00,74.3,68.8,29.89,ENE,67,0.0,-999.0,83,-99.99,,,0.02,Acu-Link.com,2013-09-23 09:01:00,
2013-09-22 23:16:00,74.3,69.5,29.89,South,180,1.7,-999.0,85,-99.99,,,0.02,Acu-Link.com,2013-09-23 09:16:00,
2013-09-22 23:31:00,74.1,69.3,29.90,ENE,67,0.0,-999.0,85,-99.99,,,0.02,Acu-Link.com,2013-09-23 09:31:00,
2013-09-22 23:46:00,73.6,69.1,29.89,South,180,1.1,-999.0,86,-99.99,,,0.02,Acu-Link.com,2013-09-23 09:46:00,